sensor_id;sensor_type;location;lat;lon;timestamp;pressure;altitude;pressure_sealevel;temperature;humidity
57801;BME280;43627;42.728;23.256;2023-07-08T00:01:35;95291.88;;;17.63;100.00
57801;BME280;43627;42.728;23.256;2023-07-08T00:04:02;95295.13;;;17.67;100.00
57801;BME280;43627;42.728;23.256;2023-07-08T00:06:30;95288.88;;;17.67;100.00
57801;BME280;43627;42.728;23.256;2023-07-08T00:08:57;95290.38;;;17.62;100.00
57801;BME280;43627;42.728;23.256;2023-07-08T00:11:24;95290.38;;;17.57;100.00
57801;BME280;43627;42.728;23.256;2023-07-08T00:13:51;95269.31;;;17.54;100.00
57801;BME280;43627;42.728;23.256;2023-07-08T00:16:18;95270.31;;;17.56;100.00
57801;BME280;43627;42.728;23.256;2023-07-08T00:18:46;95271.06;;;17.51;100.00
57801;BME280;43627;42.728;23.256;2023-07-08T00:21:16;95275.06;;;17.45;100.00
57801;BME280;43627;42.728;23.256;2023-07-08T00:23:45;95271.56;;;17.44;100.00
57801;BME280;43627;42.728;23.256;2023-07-08T00:26:23;95271.03;;;17.40;100.00
57801;BME280;43627;42.728;23.256;2023-07-08T00:28:51;95279.06;;;17.38;100.00
57801;BME280;43627;42.728;23.256;2023-07-08T00:31:18;95277.09;;;17.44;100.00
57801;BME280;43627;42.728;23.256;2023-07-08T00:33:53;95272.06;;;17.48;100.00
57801;BME280;43627;42.728;23.256;2023-07-08T00:36:24;95266.03;;;17.50;100.00
57801;BME280;43627;42.728;23.256;2023-07-08T00:38:52;95266.81;;;17.45;100.00
57801;BME280;43627;42.728;23.256;2023-07-08T00:41:34;95266.31;;;17.46;100.00
57801;BME280;43627;42.728;23.256;2023-07-08T00:44:02;95259.00;;;17.43;100.00
57801;BME280;43627;42.728;23.256;2023-07-08T00:49:17;95246.25;;;17.34;100.00
57801;BME280;43627;42.728;23.256;2023-07-08T00:51:49;95255.00;;;17.33;100.00
57801;BME280;43627;42.728;23.256;2023-07-08T00:54:19;95242.72;;;17.23;100.00
57801;BME280;43627;42.728;23.256;2023-07-08T00:56:58;95249.47;;;17.22;100.00
57801;BME280;43627;42.728;23.256;2023-07-08T00:59:30;95248.72;;;17.16;100.00
57801;BME280;43627;42.728;23.256;2023-07-08T01:01:58;95238.44;;;17.10;100.00
57801;BME280;43627;42.728;23.256;2023-07-08T01:04:34;95228.41;;;17.02;100.00
57801;BME280;43627;42.728;23.256;2023-07-08T01:07:03;95238.16;;;17.03;100.00
57801;BME280;43627;42.728;23.256;2023-07-08T01:09:37;95246.44;;;17.03;100.00
57801;BME280;43627;42.728;23.256;2023-07-08T01:12:08;95243.16;;;17.04;100.00
57801;BME280;43627;42.728;23.256;2023-07-08T01:14:35;95240.66;;;17.01;100.00
57801;BME280;43627;42.728;23.256;2023-07-08T01:17:04;95239.94;;;17.06;100.00
57801;BME280;43627;42.728;23.256;2023-07-08T01:19:31;95235.94;;;17.07;100.00
57801;BME280;43627;42.728;23.256;2023-07-08T01:22:05;95241.19;;;17.10;100.00
57801;BME280;43627;42.728;23.256;2023-07-08T01:24:35;95237.97;;;17.18;100.00
57801;BME280;43627;42.728;23.256;2023-07-08T01:27:05;95247.72;;;17.19;100.00
57801;BME280;43627;42.728;23.256;2023-07-08T01:29:32;95230.72;;;17.26;100.00
57801;BME280;43627;42.728;23.256;2023-07-08T01:31:59;95241.22;;;17.33;100.00
57801;BME280;43627;42.728;23.256;2023-07-08T01:34:30;95243.72;;;17.31;100.00
57801;BME280;43627;42.728;23.256;2023-07-08T01:36:59;95228.69;;;17.32;100.00
57801;BME280;43627;42.728;23.256;2023-07-08T01:39:29;95238.22;;;17.42;100.00
57801;BME280;43627;42.728;23.256;2023-07-08T01:41:56;95234.22;;;17.43;100.00
57801;BME280;43627;42.728;23.256;2023-07-08T01:44:27;95230.47;;;17.46;100.00
57801;BME280;43627;42.728;23.256;2023-07-08T01:46:58;95225.44;;;17.39;100.00
57801;BME280;43627;42.728;23.256;2023-07-08T01:49:27;95224.69;;;17.33;100.00
57801;BME280;43627;42.728;23.256;2023-07-08T01:51:55;95215.91;;;17.29;100.00
57801;BME280;43627;42.728;23.256;2023-07-08T01:54:22;95225.19;;;17.31;100.00
57801;BME280;43627;42.728;23.256;2023-07-08T01:56:54;95217.91;;;17.34;100.00
57801;BME280;43627;42.728;23.256;2023-07-08T01:59:21;95227.72;;;17.35;100.00
57801;BME280;43627;42.728;23.256;2023-07-08T02:01:48;95207.41;;;17.27;100.00
57801;BME280;43627;42.728;23.256;2023-07-08T02:04:21;95225.94;;;17.32;100.00
57801;BME280;43627;42.728;23.256;2023-07-08T02:09:20;95232.94;;;17.33;100.00
57801;BME280;43627;42.728;23.256;2023-07-08T02:11:47;95236.97;;;17.32;100.00
57801;BME280;43627;42.728;23.256;2023-07-08T02:14:13;95229.19;;;17.30;100.00
57801;BME280;43627;42.728;23.256;2023-07-08T02:16:40;95240.47;;;17.27;100.00
57801;BME280;43627;42.728;23.256;2023-07-08T02:19:07;95237.22;;;17.28;100.00
57801;BME280;43627;42.728;23.256;2023-07-08T02:21:33;95235.69;;;17.22;100.00
57801;BME280;43627;42.728;23.256;2023-07-08T02:24:00;95227.44;;;17.22;100.00
57801;BME280;43627;42.728;23.256;2023-07-08T02:26:27;95219.41;;;17.12;100.00
57801;BME280;43627;42.728;23.256;2023-07-08T02:28:53;95233.47;;;17.26;100.00
57801;BME280;43627;42.728;23.256;2023-07-08T02:31:20;95246.22;;;17.29;100.00
57801;BME280;43627;42.728;23.256;2023-07-08T02:33:51;95232.94;;;17.16;100.00
57801;BME280;43627;42.728;23.256;2023-07-08T02:36:18;95251.75;;;17.29;100.00
57801;BME280;43627;42.728;23.256;2023-07-08T02:38:45;95261.25;;;17.22;100.00
57801;BME280;43627;42.728;23.256;2023-07-08T02:41:11;95252.97;;;17.17;100.00
57801;BME280;43627;42.728;23.256;2023-07-08T02:43:38;95259.97;;;17.12;100.00
57801;BME280;43627;42.728;23.256;2023-07-08T02:46:05;95260.97;;;17.14;100.00
57801;BME280;43627;42.728;23.256;2023-07-08T02:48:32;95259.97;;;17.06;100.00
57801;BME280;43627;42.728;23.256;2023-07-08T02:51:03;95277.25;;;17.12;100.00
57801;BME280;43627;42.728;23.256;2023-07-08T02:53:30;95274.50;;;17.12;100.00
57801;BME280;43627;42.728;23.256;2023-07-08T02:55:57;95282.75;;;17.12;100.00
57801;BME280;43627;42.728;23.256;2023-07-08T02:58:24;95281.25;;;17.11;100.00
57801;BME280;43627;42.728;23.256;2023-07-08T03:00:54;95275.75;;;17.11;100.00
57801;BME280;43627;42.728;23.256;2023-07-08T03:03:21;95274.00;;;17.08;100.00
57801;BME280;43627;42.728;23.256;2023-07-08T03:05:57;95282.03;;;17.18;100.00
57801;BME280;43627;42.728;23.256;2023-07-08T03:08:26;95275.03;;;17.17;100.00
57801;BME280;43627;42.728;23.256;2023-07-08T03:10:57;95276.28;;;17.16;100.00
57801;BME280;43627;42.728;23.256;2023-07-08T03:13:26;95278.25;;;17.09;100.00
57801;BME280;43627;42.728;23.256;2023-07-08T03:15:53;95270.78;;;17.16;100.00
57801;BME280;43627;42.728;23.256;2023-07-08T03:18:22;95282.00;;;17.12;100.00
57801;BME280;43627;42.728;23.256;2023-07-08T03:20:50;95276.75;;;17.14;100.00
57801;BME280;43627;42.728;23.256;2023-07-08T03:23:17;95272.00;;;17.14;100.00
57801;BME280;43627;42.728;23.256;2023-07-08T03:25:44;95265.72;;;17.14;100.00
57801;BME280;43627;42.728;23.256;2023-07-08T03:28:10;95287.31;;;17.32;100.00
57801;BME280;43627;42.728;23.256;2023-07-08T03:30:42;95281.31;;;17.39;100.00
57801;BME280;43627;42.728;23.256;2023-07-08T03:33:09;95284.09;;;17.56;100.00
57801;BME280;43627;42.728;23.256;2023-07-08T03:35:37;95285.13;;;17.81;100.00
57801;BME280;43627;42.728;23.256;2023-07-08T03:38:07;95285.88;;;17.98;100.00
57801;BME280;43627;42.728;23.256;2023-07-08T03:40:33;95277.34;;;18.08;100.00
57801;BME280;43627;42.728;23.256;2023-07-08T03:43:00;95280.81;;;18.42;100.00
57801;BME280;43627;42.728;23.256;2023-07-08T03:45:27;95273.84;;;18.99;100.00
57801;BME280;43627;42.728;23.256;2023-07-08T03:47:54;95269.34;;;19.37;100.00
57801;BME280;43627;42.728;23.256;2023-07-08T03:50:23;95274.31;;;19.85;100.00
57801;BME280;43627;42.728;23.256;2023-07-08T03:52:51;95283.56;;;20.18;100.00
57801;BME280;43627;42.728;23.256;2023-07-08T03:55:19;95276.88;;;20.62;100.00
57801;BME280;43627;42.728;23.256;2023-07-08T03:57:46;95270.47;;;21.10;100.00
57801;BME280;43627;42.728;23.256;2023-07-08T04:00:13;95269.88;;;21.55;100.00
57801;BME280;43627;42.728;23.256;2023-07-08T04:02:42;95254.72;;;21.56;100.00
57801;BME280;43627;42.728;23.256;2023-07-08T04:05:16;95258.50;;;21.40;100.00
57801;BME280;43627;42.728;23.256;2023-07-08T04:07:43;95275.16;;;21.40;100.00
57801;BME280;43627;42.728;23.256;2023-07-08T04:10:10;95274.84;;;21.44;100.00
57801;BME280;43627;42.728;23.256;2023-07-08T04:12:38;95270.41;;;21.16;100.00
57801;BME280;43627;42.728;23.256;2023-07-08T04:15:07;95277.81;;;21.08;100.00
57801;BME280;43627;42.728;23.256;2023-07-08T04:17:46;95285.13;;;21.30;100.00
57801;BME280;43627;42.728;23.256;2023-07-08T04:20:17;95277.63;;;21.06;100.00
57801;BME280;43627;42.728;23.256;2023-07-08T04:22:45;95278.88;;;21.05;100.00
57801;BME280;43627;42.728;23.256;2023-07-08T04:25:13;95275.22;;;21.85;100.00
57801;BME280;43627;42.728;23.256;2023-07-08T04:27:41;95285.16;;;22.26;100.00
57801;BME280;43627;42.728;23.256;2023-07-08T04:30:17;95274.63;;;22.91;100.00
57801;BME280;43627;42.728;23.256;2023-07-08T04:32:45;95280.59;;;22.29;100.00
57801;BME280;43627;42.728;23.256;2023-07-08T04:35:11;95289.28;;;21.74;100.00
57801;BME280;43627;42.728;23.256;2023-07-08T04:37:38;95295.72;;;21.82;100.00
57801;BME280;43627;42.728;23.256;2023-07-08T04:40:07;95290.56;;;21.73;100.00
57801;BME280;43627;42.728;23.256;2023-07-08T04:42:40;95296.91;;;21.36;100.00
57801;BME280;43627;42.728;23.256;2023-07-08T04:45:08;95289.72;;;21.03;100.00
57801;BME280;43627;42.728;23.256;2023-07-08T04:47:35;95281.75;;;21.37;100.00
57801;BME280;43627;42.728;23.256;2023-07-08T04:50:02;95288.13;;;21.32;100.00
57801;BME280;43627;42.728;23.256;2023-07-08T04:52:29;95294.50;;;21.78;100.00
57801;BME280;43627;42.728;23.256;2023-07-08T04:54:56;95283.91;;;21.95;100.00
57801;BME280;43627;42.728;23.256;2023-07-08T04:57:23;95287.44;;;21.63;100.00
57801;BME280;43627;42.728;23.256;2023-07-08T04:59:50;95293.88;;;21.72;100.00
57801;BME280;43627;42.728;23.256;2023-07-08T05:02:16;95306.38;;;21.78;100.00
57801;BME280;43627;42.728;23.256;2023-07-08T05:04:43;95298.09;;;22.23;100.00
57801;BME280;43627;42.728;23.256;2023-07-08T05:07:10;95301.25;;;22.73;98.29
57801;BME280;43627;42.728;23.256;2023-07-08T05:09:37;95300.78;;;22.29;100.00
57801;BME280;43627;42.728;23.256;2023-07-08T05:12:03;95303.59;;;22.56;100.00
57801;BME280;43627;42.728;23.256;2023-07-08T05:14:30;95300.28;;;22.57;98.91
57801;BME280;43627;42.728;23.256;2023-07-08T05:16:57;95301.13;;;22.52;100.00
57801;BME280;43627;42.728;23.256;2023-07-08T05:19:24;95313.50;;;22.06;100.00
57801;BME280;43627;42.728;23.256;2023-07-08T05:21:51;95308.03;;;22.19;100.00
57801;BME280;43627;42.728;23.256;2023-07-08T05:24:20;95319.41;;;22.47;99.95
57801;BME280;43627;42.728;23.256;2023-07-08T05:26:47;95315.00;;;22.39;99.77
57801;BME280;43627;42.728;23.256;2023-07-08T05:29:13;95321.00;;;22.43;100.00
57801;BME280;43627;42.728;23.256;2023-07-08T05:31:40;95318.66;;;22.47;100.00
57801;BME280;43627;42.728;23.256;2023-07-08T05:34:14;95334.19;;;22.23;100.00
57801;BME280;43627;42.728;23.256;2023-07-08T05:36:42;95324.06;;;21.94;100.00
57801;BME280;43627;42.728;23.256;2023-07-08T05:39:08;95320.31;;;21.91;100.00
57801;BME280;43627;42.728;23.256;2023-07-08T05:41:35;95325.13;;;22.23;100.00
57801;BME280;43627;42.728;23.256;2023-07-08T05:44:02;95307.63;;;22.41;98.68
57801;BME280;43627;42.728;23.256;2023-07-08T05:46:29;95329.13;;;22.41;100.00
57801;BME280;43627;42.728;23.256;2023-07-08T05:48:55;95322.72;;;21.82;100.00
57801;BME280;43627;42.728;23.256;2023-07-08T05:51:26;95336.91;;;21.78;100.00
57801;BME280;43627;42.728;23.256;2023-07-08T05:53:53;95334.88;;;21.60;100.00
57801;BME280;43627;42.728;23.256;2023-07-08T05:56:20;95341.13;;;21.47;100.00
57801;BME280;43627;42.728;23.256;2023-07-08T05:58:46;95337.25;;;20.69;100.00
57801;BME280;43627;42.728;23.256;2023-07-08T06:01:13;95338.22;;;20.72;100.00
57801;BME280;43627;42.728;23.256;2023-07-08T06:03:40;95331.75;;;20.88;100.00
57801;BME280;43627;42.728;23.256;2023-07-08T06:06:07;95346.56;;;20.42;100.00
57801;BME280;43627;42.728;23.256;2023-07-08T06:08:34;95332.16;;;20.73;100.00
57801;BME280;43627;42.728;23.256;2023-07-08T06:11:01;95338.38;;;21.04;100.00
57801;BME280;43627;42.728;23.256;2023-07-08T06:13:28;95334.91;;;20.98;100.00
57801;BME280;43627;42.728;23.256;2023-07-08T06:15:55;95348.44;;;21.26;100.00
57801;BME280;43627;42.728;23.256;2023-07-08T06:18:21;95348.47;;;21.45;100.00
57801;BME280;43627;42.728;23.256;2023-07-08T06:20:56;95347.50;;;21.42;100.00
57801;BME280;43627;42.728;23.256;2023-07-08T06:23:24;95354.31;;;21.60;99.13
57801;BME280;43627;42.728;23.256;2023-07-08T06:25:51;95345.97;;;21.79;96.08
57801;BME280;43627;42.728;23.256;2023-07-08T06:28:18;95361.84;;;22.16;92.04
57801;BME280;43627;42.728;23.256;2023-07-08T06:30:46;95363.75;;;22.40;94.95
57801;BME280;43627;42.728;23.256;2023-07-08T06:33:13;95371.88;;;22.64;87.09
57801;BME280;43627;42.728;23.256;2023-07-08T06:35:40;95354.38;;;22.83;85.90
57801;BME280;43627;42.728;23.256;2023-07-08T06:38:08;95359.56;;;23.05;86.41
57801;BME280;43627;42.728;23.256;2023-07-08T06:40:35;95348.31;;;22.97;79.28
57801;BME280;43627;42.728;23.256;2023-07-08T06:43:05;95362.66;;;22.30;82.42
57801;BME280;43627;42.728;23.256;2023-07-08T06:45:31;95357.91;;;22.24;81.66
57801;BME280;43627;42.728;23.256;2023-07-08T06:47:58;95357.66;;;22.41;80.23
57801;BME280;43627;42.728;23.256;2023-07-08T06:50:25;95345.53;;;22.26;85.66
57801;BME280;43627;42.728;23.256;2023-07-08T06:52:52;95369.19;;;22.45;79.85
57801;BME280;43627;42.728;23.256;2023-07-08T06:55:18;95371.88;;;22.51;79.56
57801;BME280;43627;42.728;23.256;2023-07-08T06:57:45;95364.47;;;22.40;79.70
57801;BME280;43627;42.728;23.256;2023-07-08T07:00:12;95357.16;;;22.56;83.15
57801;BME280;43627;42.728;23.256;2023-07-08T07:02:39;95377.56;;;22.59;80.87
57801;BME280;43627;42.728;23.256;2023-07-08T07:05:06;95365.38;;;22.16;86.99
57801;BME280;43627;42.728;23.256;2023-07-08T07:07:33;95376.31;;;22.28;91.35
57801;BME280;43627;42.728;23.256;2023-07-08T07:10:01;95375.56;;;22.27;88.34
57801;BME280;43627;42.728;23.256;2023-07-08T07:12:28;95366.34;;;22.19;88.01
57801;BME280;43627;42.728;23.256;2023-07-08T07:14:54;95365.31;;;22.03;86.47
57801;BME280;43627;42.728;23.256;2023-07-08T07:17:23;95379.50;;;22.00;90.93
57801;BME280;43627;42.728;23.256;2023-07-08T07:19:50;95367.91;;;21.45;95.12
57801;BME280;43627;42.728;23.256;2023-07-08T07:22:17;95394.75;;;21.55;95.55
57801;BME280;43627;42.728;23.256;2023-07-08T07:24:44;95394.50;;;21.34;94.35
57801;BME280;43627;42.728;23.256;2023-07-08T07:27:11;95408.22;;;21.46;97.24
57801;BME280;43627;42.728;23.256;2023-07-08T07:29:47;95413.19;;;21.53;100.00
57801;BME280;43627;42.728;23.256;2023-07-08T07:32:15;95398.41;;;21.45;99.62
57801;BME280;43627;42.728;23.256;2023-07-08T07:34:42;95379.75;;;21.64;95.61
57801;BME280;43627;42.728;23.256;2023-07-08T07:37:13;95407.88;;;21.74;88.15
57801;BME280;43627;42.728;23.256;2023-07-08T07:39:40;95399.38;;;21.85;93.37
57801;BME280;43627;42.728;23.256;2023-07-08T07:42:09;95400.34;;;21.87;93.50
57801;BME280;43627;42.728;23.256;2023-07-08T07:44:36;95384.38;;;21.75;94.06
57801;BME280;43627;42.728;23.256;2023-07-08T07:47:03;95394.31;;;21.89;89.83
57801;BME280;43627;42.728;23.256;2023-07-08T07:49:30;95401.63;;;21.86;91.40
57801;BME280;43627;42.728;23.256;2023-07-08T07:51:57;95399.53;;;21.74;93.86
57801;BME280;43627;42.728;23.256;2023-07-08T07:54:24;95397.13;;;21.46;94.55
57801;BME280;43627;42.728;23.256;2023-07-08T07:56:52;95406.78;;;21.39;94.81
57801;BME280;43627;42.728;23.256;2023-07-08T07:59:19;95390.97;;;21.09;96.58
57801;BME280;43627;42.728;23.256;2023-07-08T08:01:46;95398.38;;;21.01;99.49
57801;BME280;43627;42.728;23.256;2023-07-08T08:04:12;95401.25;;;20.90;100.00
57801;BME280;43627;42.728;23.256;2023-07-08T08:06:39;95402.31;;;20.87;100.00
57801;BME280;43627;42.728;23.256;2023-07-08T08:09:06;95393.47;;;21.13;96.15
57801;BME280;43627;42.728;23.256;2023-07-08T08:11:33;95394.72;;;21.12;96.34
57801;BME280;43627;42.728;23.256;2023-07-08T08:14:01;95395.09;;;21.27;96.90
57801;BME280;43627;42.728;23.256;2023-07-08T08:16:27;95396.38;;;21.45;93.97
57801;BME280;43627;42.728;23.256;2023-07-08T08:18:54;95405.63;;;21.72;89.52
57801;BME280;43627;42.728;23.256;2023-07-08T08:21:21;95379.81;;;21.58;88.82
57801;BME280;43627;42.728;23.256;2023-07-08T08:23:48;95397.19;;;21.96;92.55
57801;BME280;43627;42.728;23.256;2023-07-08T09:48:40;95354.63;;;22.98;74.33
57801;BME280;43627;42.728;23.256;2023-07-08T09:51:07;95362.84;;;23.43;80.11
57801;BME280;43627;42.728;23.256;2023-07-08T09:53:35;95348.06;;;23.61;72.68
57801;BME280;43627;42.728;23.256;2023-07-08T09:56:03;95351.81;;;23.37;71.06
57801;BME280;43627;42.728;23.256;2023-07-08T09:58:34;95339.41;;;23.38;68.06
57801;BME280;43627;42.728;23.256;2023-07-08T10:01:17;95349.56;;;23.36;73.40
57801;BME280;43627;42.728;23.256;2023-07-08T10:03:46;95335.75;;;23.44;73.38
57801;BME280;43627;42.728;23.256;2023-07-08T10:06:27;95350.41;;;23.44;70.22
57801;BME280;43627;42.728;23.256;2023-07-08T10:08:55;95354.16;;;23.47;70.86
57801;BME280;43627;42.728;23.256;2023-07-08T10:11:40;95348.34;;;23.71;74.41
57801;BME280;43627;42.728;23.256;2023-07-08T10:14:27;95344.88;;;23.78;68.27
57801;BME280;43627;42.728;23.256;2023-07-08T10:16:56;95355.53;;;23.67;68.57
57801;BME280;43627;42.728;23.256;2023-07-08T10:19:23;95337.53;;;23.68;71.64
57801;BME280;43627;42.728;23.256;2023-07-08T10:24:46;95341.56;;;23.80;66.59
57801;BME280;43627;42.728;23.256;2023-07-08T10:27:40;95330.63;;;23.82;69.65
57801;BME280;43627;42.728;23.256;2023-07-08T10:30:26;95321.28;;;23.92;66.85
57801;BME280;43627;42.728;23.256;2023-07-08T10:36:23;95318.63;;;23.87;64.94
57801;BME280;43627;42.728;23.256;2023-07-08T10:50:29;95307.22;;;24.40;62.44
57801;BME280;43627;42.728;23.256;2023-07-08T10:52:46;95302.09;;;24.52;60.24
57801;BME280;43627;42.728;23.256;2023-07-08T10:55:26;95302.56;;;24.63;61.99
57801;BME280;43627;42.728;23.256;2023-07-08T11:00:47;95295.03;;;24.79;61.13
57801;BME280;43627;42.728;23.256;2023-07-08T11:06:06;95290.88;;;24.65;61.72
57801;BME280;43627;42.728;23.256;2023-07-08T11:08:56;95286.31;;;24.54;56.88
57801;BME280;43627;42.728;23.256;2023-07-08T11:11:36;95284.50;;;24.57;57.15
57801;BME280;43627;42.728;23.256;2023-07-08T11:14:10;95278.25;;;24.71;55.58
57801;BME280;43627;42.728;23.256;2023-07-08T11:16:47;95292.19;;;24.71;58.13
57801;BME280;43627;42.728;23.256;2023-07-08T11:19:26;95287.66;;;25.18;56.79
57801;BME280;43627;42.728;23.256;2023-07-08T11:22:00;95277.06;;;24.59;55.50
57801;BME280;43627;42.728;23.256;2023-07-08T11:24:46;95272.94;;;24.53;54.84
57801;BME280;43627;42.728;23.256;2023-07-08T11:27:21;95273.44;;;24.43;56.63
57801;BME280;43627;42.728;23.256;2023-07-08T11:30:00;95261.03;;;24.52;57.62
57801;BME280;43627;42.728;23.256;2023-07-08T11:32:30;95268.41;;;24.42;60.89
57801;BME280;43627;42.728;23.256;2023-07-08T11:34:59;95274.16;;;24.36;58.58
57801;BME280;43627;42.728;23.256;2023-07-08T11:37:28;95267.94;;;24.30;58.41
57801;BME280;43627;42.728;23.256;2023-07-08T11:40:09;95255.31;;;24.58;58.56
57801;BME280;43627;42.728;23.256;2023-07-08T11:42:39;95270.13;;;24.81;55.16
57801;BME280;43627;42.728;23.256;2023-07-08T11:45:18;95280.13;;;24.69;55.87
57801;BME280;43627;42.728;23.256;2023-07-08T11:47:49;95274.75;;;25.07;52.92
57801;BME280;43627;42.728;23.256;2023-07-08T11:50:24;95285.00;;;24.76;53.09
57801;BME280;43627;42.728;23.256;2023-07-08T11:52:55;95278.97;;;25.37;57.68
57801;BME280;43627;42.728;23.256;2023-07-08T11:55:48;95269.88;;;25.44;50.90
57801;BME280;43627;42.728;23.256;2023-07-08T11:58:23;95268.41;;;25.50;55.19
57801;BME280;43627;42.728;23.256;2023-07-08T12:01:00;95272.69;;;25.51;50.78
57801;BME280;43627;42.728;23.256;2023-07-08T12:03:47;95239.44;;;24.73;52.99
57801;BME280;43627;42.728;23.256;2023-07-08T12:08:56;95258.13;;;24.58;53.92
57801;BME280;43627;42.728;23.256;2023-07-08T12:11:43;95283.50;;;24.75;54.13
57801;BME280;43627;42.728;23.256;2023-07-08T12:14:10;95278.56;;;25.25;51.56
57801;BME280;43627;42.728;23.256;2023-07-08T12:16:37;95276.44;;;25.61;51.83
57801;BME280;43627;42.728;23.256;2023-07-08T12:19:05;95280.69;;;25.55;50.57
57801;BME280;43627;42.728;23.256;2023-07-08T12:21:35;95280.16;;;25.64;50.32
57801;BME280;43627;42.728;23.256;2023-07-08T12:24:06;95276.69;;;25.86;50.09
57801;BME280;43627;42.728;23.256;2023-07-08T12:26:34;95270.38;;;25.78;49.10
57801;BME280;43627;42.728;23.256;2023-07-08T12:29:00;95273.16;;;25.78;50.45
57801;BME280;43627;42.728;23.256;2023-07-08T12:31:28;95270.44;;;25.42;52.09
57801;BME280;43627;42.728;23.256;2023-07-08T12:33:58;95279.88;;;25.24;52.94
57801;BME280;43627;42.728;23.256;2023-07-08T12:36:28;95270.97;;;24.97;52.72
57801;BME280;43627;42.728;23.256;2023-07-08T12:38:56;95266.81;;;24.83;53.09
57801;BME280;43627;42.728;23.256;2023-07-08T12:41:29;95247.53;;;24.92;53.06
57801;BME280;43627;42.728;23.256;2023-07-08T12:43:57;95244.91;;;24.58;54.13
57801;BME280;43627;42.728;23.256;2023-07-08T12:46:25;95258.56;;;24.41;54.84
57801;BME280;43627;42.728;23.256;2023-07-08T12:48:52;95252.13;;;24.54;55.48
57801;BME280;43627;42.728;23.256;2023-07-08T12:51:23;95252.69;;;24.88;57.14
57801;BME280;43627;42.728;23.256;2023-07-08T12:53:51;95254.56;;;25.22;53.50
57801;BME280;43627;42.728;23.256;2023-07-08T12:56:20;95254.03;;;25.39;52.22
57801;BME280;43627;42.728;23.256;2023-07-08T12:58:50;95257.50;;;25.16;51.48
57801;BME280;43627;42.728;23.256;2023-07-08T13:01:23;95269.22;;;25.15;53.64
57801;BME280;43627;42.728;23.256;2023-07-08T13:03:54;95264.09;;;25.34;50.98
57801;BME280;43627;42.728;23.256;2023-07-08T13:06:27;95268.00;;;25.31;50.24
57801;BME280;43627;42.728;23.256;2023-07-08T13:09:00;95251.38;;;25.18;50.39
57801;BME280;43627;42.728;23.256;2023-07-08T13:11:29;95282.25;;;25.12;50.98
57801;BME280;43627;42.728;23.256;2023-07-08T13:13:59;95265.19;;;25.31;50.64
57801;BME280;43627;42.728;23.256;2023-07-08T13:16:33;95266.75;;;25.03;51.40
57801;BME280;43627;42.728;23.256;2023-07-08T13:19:01;95266.59;;;25.09;55.82
57801;BME280;43627;42.728;23.256;2023-07-08T13:21:29;95269.31;;;25.45;52.21
57801;BME280;43627;42.728;23.256;2023-07-08T13:23:57;95261.03;;;25.76;51.67
57801;BME280;43627;42.728;23.256;2023-07-08T13:26:27;95263.09;;;25.75;51.35
57801;BME280;43627;42.728;23.256;2023-07-08T13:29:09;95255.22;;;25.58;53.80
57801;BME280;43627;42.728;23.256;2023-07-08T13:31:38;95250.50;;;25.38;52.91
57801;BME280;43627;42.728;23.256;2023-07-08T13:34:09;95255.91;;;25.36;54.34
57801;BME280;43627;42.728;23.256;2023-07-08T13:36:39;95248.34;;;25.67;53.34
57801;BME280;43627;42.728;23.256;2023-07-08T13:39:09;95247.28;;;25.85;52.71
57801;BME280;43627;42.728;23.256;2023-07-08T13:41:36;95266.47;;;25.81;50.18
57801;BME280;43627;42.728;23.256;2023-07-08T13:44:08;95262.38;;;25.82;49.19
57801;BME280;43627;42.728;23.256;2023-07-08T13:46:37;95253.19;;;25.67;49.43
57801;BME280;43627;42.728;23.256;2023-07-08T13:49:16;95257.03;;;25.41;49.88
57801;BME280;43627;42.728;23.256;2023-07-08T13:51:48;95250.59;;;25.69;52.32
57801;BME280;43627;42.728;23.256;2023-07-08T13:54:27;95251.94;;;26.13;52.75
57801;BME280;43627;42.728;23.256;2023-07-08T13:57:00;95242.44;;;26.24;48.28
57801;BME280;43627;42.728;23.256;2023-07-08T13:59:28;95244.44;;;25.62;50.10
57801;BME280;43627;42.728;23.256;2023-07-08T14:01:56;95259.84;;;25.41;49.04
57801;BME280;43627;42.728;23.256;2023-07-08T14:04:30;95263.88;;;25.24;50.89
57801;BME280;43627;42.728;23.256;2023-07-08T14:06:59;95260.38;;;25.39;52.86
57801;BME280;43627;42.728;23.256;2023-07-08T14:09:26;95261.63;;;25.82;51.47
57801;BME280;43627;42.728;23.256;2023-07-08T14:11:53;95252.31;;;26.02;49.06
57801;BME280;43627;42.728;23.256;2023-07-08T14:14:20;95259.41;;;26.11;47.29
57801;BME280;43627;42.728;23.256;2023-07-08T14:16:54;95260.88;;;25.89;49.20
57801;BME280;43627;42.728;23.256;2023-07-08T14:19:27;95261.66;;;25.97;51.16
57801;BME280;43627;42.728;23.256;2023-07-08T14:22:02;95259.78;;;25.92;48.43
57801;BME280;43627;42.728;23.256;2023-07-08T14:24:32;95260.16;;;26.19;49.05
57801;BME280;43627;42.728;23.256;2023-07-08T14:26:59;95253.06;;;25.95;47.76
57801;BME280;43627;42.728;23.256;2023-07-08T14:29:26;95267.59;;;25.78;48.33
57801;BME280;43627;42.728;23.256;2023-07-08T14:31:52;95256.53;;;25.65;47.42
57801;BME280;43627;42.728;23.256;2023-07-08T14:34:28;95248.66;;;25.48;48.43
57801;BME280;43627;42.728;23.256;2023-07-08T14:36:55;95246.47;;;25.54;47.97
57801;BME280;43627;42.728;23.256;2023-07-08T14:39:23;95240.25;;;25.25;48.84
57801;BME280;43627;42.728;23.256;2023-07-08T14:41:50;95259.81;;;25.33;49.79
57801;BME280;43627;42.728;23.256;2023-07-08T14:46:49;95242.75;;;25.59;48.22
57801;BME280;43627;42.728;23.256;2023-07-08T14:49:21;95251.28;;;25.46;50.23
57801;BME280;43627;42.728;23.256;2023-07-08T14:51:49;95250.75;;;25.55;49.71
57801;BME280;43627;42.728;23.256;2023-07-08T14:54:17;95249.88;;;25.83;49.00